createdAt,value
2018-12-16T00:00:51.865Z,14.20
2018-12-16T00:19:40.084Z,14.33
2018-12-16T00:22:09.536Z,13.03
2018-12-16T00:24:37.686Z,15.33
2018-12-16T00:27:12.255Z,13.17
2018-12-16T00:29:43.259Z,13.30
2018-12-16T00:32:11.459Z,12.93
2018-12-16T00:37:23.374Z,13.27
2018-12-16T00:39:51.451Z,13.70
2018-12-16T00:42:28.274Z,15.57
2018-12-16T00:44:57.484Z,14.43
2018-12-16T00:47:26.919Z,14.27
2018-12-16T00:49:58.039Z,13.93
2018-12-16T00:52:59.317Z,12.97
2018-12-16T00:55:52.019Z,13.87
2018-12-16T00:58:23.105Z,12.37
2018-12-16T01:00:51.819Z,13.00
2018-12-16T01:03:24.309Z,14.37
2018-12-16T01:37:41.938Z,14.73
2018-12-16T01:40:19.213Z,13.77
2018-12-16T01:43:01.849Z,12.90
2018-12-16T01:48:51.278Z,14.33
2018-12-16T01:51:35.134Z,13.47
2018-12-16T01:54:14.591Z,12.10
2018-12-16T01:59:53.185Z,13.53
2018-12-16T02:02:26.114Z,14.63
2018-12-16T02:11:04.942Z,12.37
2018-12-16T02:13:37.799Z,14.30
2018-12-16T02:16:06.645Z,13.70
2018-12-16T02:18:43.003Z,13.07
2018-12-16T02:34:48.366Z,12.40
2018-12-16T02:39:59.501Z,12.33
2018-12-16T02:42:27.649Z,14.27
2018-12-16T02:44:57.054Z,13.53
2018-12-16T02:47:25.149Z,13.07
2018-12-16T02:49:54.069Z,13.43
2018-12-16T02:52:22.419Z,15.30
2018-12-16T02:54:50.697Z,13.47
2018-12-16T02:57:19.875Z,12.90
2018-12-16T02:59:48.544Z,11.70
2018-12-16T03:02:16.735Z,12.07
2018-12-16T03:04:48.509Z,13.17
2018-12-16T03:07:16.631Z,14.27
2018-12-16T03:09:44.949Z,12.63
2018-12-16T03:12:13.089Z,14.20
2018-12-16T03:14:44.889Z,13.13
2018-12-16T03:17:13.281Z,13.50
2018-12-16T03:19:43.020Z,14.43
2018-12-16T03:22:14.498Z,11.50
2018-12-16T03:24:45.430Z,13.00
2018-12-16T03:27:16.976Z,12.50
2018-12-16T03:29:50.389Z,13.10
2018-12-16T03:32:22.166Z,12.90
2018-12-16T03:34:51.744Z,10.53
2018-12-16T03:37:21.767Z,13.43
2018-12-16T03:39:51.825Z,13.20
2018-12-16T03:42:21.216Z,12.63
2018-12-16T03:44:51.451Z,12.80
2018-12-16T03:47:21.406Z,11.93
2018-12-16T03:49:50.634Z,12.30
2018-12-16T03:52:20.389Z,13.60
2018-12-16T03:54:49.696Z,12.00
2018-12-16T03:57:18.249Z,8.93
2018-12-16T03:59:47.591Z,12.17
2018-12-16T04:02:16.004Z,10.90
2018-12-16T04:04:48.107Z,11.53
2018-12-16T04:07:16.626Z,12.83
2018-12-16T04:09:45.214Z,12.23
2018-12-16T04:12:14.697Z,11.70
2018-12-16T04:14:43.271Z,13.23
2018-12-16T04:17:11.804Z,11.00
2018-12-16T04:19:41.076Z,12.30
2018-12-16T04:22:09.754Z,11.60
2018-12-16T04:24:39.697Z,12.73
2018-12-16T04:27:11.205Z,13.17
2018-12-16T04:29:39.909Z,11.20
2018-12-16T04:32:09.791Z,13.23
2018-12-16T04:34:39.910Z,11.87
2018-12-16T04:37:14.289Z,9.47
2018-12-16T04:39:43.451Z,12.73
2018-12-16T04:42:12.244Z,13.03
2018-12-16T04:44:40.797Z,12.40
2018-12-16T04:47:10.009Z,11.20
2018-12-16T04:49:38.694Z,11.00
2018-12-16T04:52:10.565Z,11.83
2018-12-16T04:54:39.330Z,12.93
2018-12-16T04:57:12.093Z,13.37
2018-12-16T04:59:40.564Z,12.57
2018-12-16T05:02:10.330Z,11.13
2018-12-16T05:04:38.975Z,13.97
2018-12-16T05:07:09.471Z,13.17
2018-12-16T05:09:40.076Z,11.03
2018-12-16T05:12:09.899Z,12.87
2018-12-16T05:14:39.334Z,12.50
2018-12-16T05:17:07.969Z,12.47
2018-12-16T05:19:39.571Z,12.00
2018-12-16T05:22:08.364Z,12.30
2018-12-16T05:24:42.570Z,12.77
2018-12-16T05:27:10.944Z,13.20
2018-12-16T05:29:39.451Z,11.80
2018-12-16T05:32:08.049Z,12.57
2018-12-16T05:34:36.524Z,11.87
2018-12-16T05:37:05.784Z,12.43
2018-12-16T05:39:34.184Z,11.60
2018-12-16T05:42:04.009Z,12.63
2018-12-16T05:44:32.614Z,11.93
2018-12-16T05:47:01.194Z,10.33
2018-12-16T05:49:35.813Z,11.50
2018-12-16T05:52:04.270Z,11.23
2018-12-16T05:54:32.554Z,11.77
2018-12-16T05:57:00.821Z,14.90
2018-12-16T05:59:31.121Z,11.53
2018-12-16T06:02:01.586Z,12.93
2018-12-16T06:04:34.802Z,14.40
2018-12-16T06:07:04.569Z,12.57
2018-12-16T06:09:33.485Z,14.57
2018-12-16T06:12:17.016Z,10.73
2018-12-16T06:14:45.459Z,10.80
2018-12-16T06:17:14.029Z,12.47
2018-12-16T06:19:42.570Z,12.07
2018-12-16T06:22:11.104Z,10.97
2018-12-16T06:24:42.777Z,13.03
2018-12-16T06:27:12.234Z,13.17
2018-12-16T06:29:42.244Z,10.77
2018-12-16T06:32:13.439Z,12.57
2018-12-16T06:34:42.199Z,12.30
2018-12-16T06:37:11.559Z,11.73
2018-12-16T06:39:40.166Z,10.70
2018-12-16T06:42:08.724Z,13.23
2018-12-16T06:44:37.354Z,12.53
2018-12-16T06:47:05.913Z,10.90
2018-12-16T06:49:34.514Z,12.53
2018-12-16T06:52:03.210Z,12.30
2018-12-16T06:54:31.824Z,12.40
2018-12-16T06:57:00.624Z,9.83
2018-12-16T06:59:29.849Z,14.03
2018-12-16T07:02:00.943Z,10.53
2018-12-16T07:04:29.563Z,13.57
2018-12-16T07:06:58.578Z,12.80
2018-12-16T07:09:27.523Z,14.17
2018-12-16T07:11:56.089Z,13.33
2018-12-16T07:14:55.903Z,13.03
2018-12-16T07:17:30.902Z,13.57
2018-12-16T07:19:59.633Z,12.97
2018-12-16T07:22:28.203Z,11.77
2018-12-16T07:25:01.498Z,10.57
2018-12-16T07:27:29.888Z,13.50
2018-12-16T07:29:58.597Z,11.43
2018-12-16T07:32:27.003Z,11.70
2018-12-16T07:34:55.548Z,11.07
2018-12-16T07:37:24.645Z,11.70
2018-12-16T07:42:49.304Z,12.07
2018-12-16T07:45:27.341Z,11.37
2018-12-16T07:48:07.980Z,12.60
2018-12-16T07:50:36.853Z,12.50
2018-12-16T07:53:05.360Z,12.47
2018-12-16T07:55:33.668Z,14.03
2018-12-16T07:58:03.303Z,14.33
2018-12-16T08:00:34.882Z,15.23
2018-12-16T08:03:04.568Z,13.60
2018-12-16T08:05:33.087Z,14.37
2018-12-16T08:08:01.568Z,17.00
2018-12-16T08:10:30.354Z,17.20
2018-12-16T08:12:58.888Z,14.97
2018-12-16T08:15:27.308Z,11.27
2018-12-16T08:17:55.694Z,16.07
2018-12-16T08:20:24.143Z,17.07
2018-12-16T08:22:52.578Z,18.10
2018-12-16T08:25:24.171Z,15.37
2018-12-16T08:27:53.995Z,17.90
2018-12-16T08:30:22.464Z,18.10
2018-12-16T08:32:50.840Z,18.17
2018-12-16T08:35:22.854Z,19.23
2018-12-16T08:37:51.164Z,18.33
2018-12-16T08:40:19.568Z,18.63
2018-12-16T08:42:47.974Z,18.73
2018-12-16T08:45:16.366Z,13.53
2018-12-16T08:47:44.794Z,17.43
2018-12-16T08:50:13.324Z,15.73
2018-12-16T08:52:41.594Z,17.97
2018-12-16T08:55:09.962Z,14.63
2018-12-16T08:57:38.389Z,18.07
2018-12-16T09:00:07.499Z,15.93
2018-12-16T09:02:35.864Z,20.37
2018-12-16T09:05:04.684Z,19.77
2018-12-16T09:07:37.173Z,17.90
2018-12-16T09:10:03.894Z,18.40
2018-12-16T09:12:32.355Z,17.40
2018-12-16T09:15:00.651Z,19.27
2018-12-16T09:17:29.085Z,17.93
2018-12-16T09:19:57.516Z,16.80
2018-12-16T09:22:25.874Z,18.13
2018-12-16T09:24:54.245Z,15.03
2018-12-16T09:27:22.704Z,19.10
2018-12-16T09:29:51.240Z,19.07
2018-12-16T09:32:19.664Z,17.43
2018-12-16T09:34:48.074Z,18.13
2018-12-16T09:37:17.384Z,18.80
2018-12-16T09:39:45.754Z,19.43
2018-12-16T09:42:14.125Z,17.40
2018-12-16T09:44:43.104Z,20.20
2018-12-16T09:47:11.411Z,19.60
2018-12-16T09:49:39.758Z,18.83
2018-12-16T09:52:08.254Z,18.73
2018-12-16T09:54:36.619Z,19.27
2018-12-16T09:57:04.944Z,17.50
2018-12-16T09:59:33.274Z,18.27
2018-12-16T10:02:01.758Z,17.33
2018-12-16T10:04:30.599Z,18.47
2018-12-16T10:06:59.024Z,19.20
2018-12-16T10:09:27.279Z,18.70
2018-12-16T10:11:55.509Z,16.83
2018-12-16T10:14:23.827Z,16.13
2018-12-16T10:16:52.134Z,19.00
2018-12-16T10:19:20.375Z,19.67
2018-12-16T10:21:48.689Z,18.97
2018-12-16T10:24:17.014Z,17.67
2018-12-16T10:26:46.102Z,19.70
2018-12-16T10:29:14.524Z,20.77
2018-12-16T10:31:43.024Z,19.63
2018-12-16T10:34:11.384Z,20.27
2018-12-16T10:36:39.624Z,21.13
2018-12-16T10:39:08.624Z,19.13
2018-12-16T10:41:36.994Z,20.73
2018-12-16T10:44:05.326Z,19.27
2018-12-16T10:46:34.343Z,18.90
2018-12-16T10:49:04.900Z,18.53
2018-12-16T10:51:33.224Z,17.83
2018-12-16T10:54:01.544Z,19.33
2018-12-16T10:56:29.844Z,19.07
2018-12-16T10:58:58.269Z,19.27
2018-12-16T11:01:28.554Z,16.90
2018-12-16T11:03:57.254Z,17.77
2018-12-16T11:06:25.711Z,18.77
2018-12-16T11:08:55.269Z,17.57
2018-12-16T11:11:23.546Z,17.80
2018-12-16T11:13:51.950Z,17.60
2018-12-16T11:16:20.259Z,17.63
2018-12-16T11:18:48.679Z,18.20
2018-12-16T11:21:17.079Z,17.57
2018-12-16T11:23:45.469Z,18.40
2018-12-16T11:26:13.869Z,22.17
2018-12-16T11:28:42.130Z,17.73
2018-12-16T11:31:10.424Z,17.97
2018-12-16T11:33:38.755Z,18.93
2018-12-16T11:36:07.204Z,17.77
2018-12-16T11:38:35.694Z,19.00
2018-12-16T11:41:04.225Z,18.13
2018-12-16T11:43:32.745Z,17.17
2018-12-16T11:46:01.149Z,18.10
2018-12-16T11:48:29.551Z,18.57
2018-12-16T11:50:57.875Z,16.80
2018-12-16T11:53:26.615Z,16.73
2018-12-16T11:55:55.012Z,16.90
2018-12-16T11:58:23.552Z,19.30
2018-12-16T12:00:52.072Z,17.07
2018-12-16T12:03:20.506Z,16.93
2018-12-16T12:05:48.897Z,17.60
2018-12-16T12:08:17.280Z,17.67
2018-12-16T12:10:46.245Z,19.43
2018-12-16T12:13:14.838Z,17.23
2018-12-16T12:15:43.524Z,16.07
2018-12-16T12:18:11.867Z,18.60
2018-12-16T12:20:41.066Z,16.80
2018-12-16T12:23:09.777Z,18.37
2018-12-16T12:25:38.521Z,17.97
2018-12-16T12:28:07.549Z,17.90
2018-12-16T12:30:36.329Z,15.63
2018-12-16T12:33:05.106Z,16.33
2018-12-16T12:35:34.086Z,17.23
2018-12-16T12:38:02.736Z,17.90
2018-12-16T12:40:31.525Z,17.50
2018-12-16T12:43:00.340Z,18.63
2018-12-16T12:45:29.152Z,16.67
2018-12-16T12:47:57.891Z,16.63
2018-12-16T12:50:26.588Z,17.80
2018-12-16T12:52:55.335Z,18.50
2018-12-16T12:55:26.911Z,17.60
2018-12-16T12:57:54.844Z,19.07
2018-12-16T13:00:23.467Z,16.83
2018-12-16T13:02:52.156Z,16.73
2018-12-16T13:05:21.024Z,15.03
2018-12-16T13:07:49.838Z,16.33
2018-12-16T13:10:18.476Z,17.13
2018-12-16T13:12:47.181Z,13.47
2018-12-16T13:15:15.931Z,16.37
2018-12-16T13:17:44.562Z,16.93
2018-12-16T13:20:13.343Z,16.37
2018-12-16T13:22:41.939Z,17.30
2018-12-16T13:25:21.301Z,17.20
2018-12-16T13:27:49.860Z,16.87
2018-12-16T13:30:18.532Z,16.13
2018-12-16T13:32:47.279Z,16.87
2018-12-16T13:35:16.001Z,16.40
2018-12-16T13:37:44.735Z,16.53
2018-12-16T13:40:13.422Z,17.37
2018-12-16T13:42:42.112Z,17.47
2018-12-16T13:45:10.708Z,18.03
2018-12-16T13:47:39.339Z,16.70
2018-12-16T13:50:09.449Z,16.70
2018-12-16T13:52:38.541Z,17.83
2018-12-16T13:55:07.987Z,14.43
2018-12-16T13:57:37.252Z,17.87
2018-12-16T14:00:07.086Z,14.20
2018-12-16T14:02:35.760Z,18.33
2018-12-16T14:05:05.491Z,13.60
2018-12-16T14:07:34.131Z,16.17
2018-12-16T14:10:02.941Z,15.33
2018-12-16T14:12:31.674Z,16.07
2018-12-16T14:15:01.776Z,16.67
2018-12-16T14:17:31.489Z,15.90
2018-12-16T14:20:01.571Z,17.13
2018-12-16T14:22:31.684Z,16.97
2018-12-16T14:25:06.604Z,17.73
2018-12-16T14:27:39.454Z,18.30
2018-12-16T14:30:14.626Z,17.27
2018-12-16T14:32:44.746Z,16.67
2018-12-16T14:35:15.168Z,17.13
2018-12-16T14:37:47.714Z,23.63
2018-12-16T14:40:18.835Z,21.40
2018-12-16T14:42:57.741Z,18.30
2018-12-16T14:45:31.285Z,16.77
2018-12-16T14:48:00.854Z,16.60
2018-12-16T14:50:36.594Z,17.43
2018-12-16T14:53:08.426Z,18.10
2018-12-16T14:55:38.763Z,17.57
2018-12-16T14:58:12.894Z,18.80
2018-12-16T15:00:44.188Z,22.87
2018-12-16T15:03:15.393Z,19.07
2018-12-16T15:05:44.535Z,19.00
2018-12-16T15:08:18.793Z,20.47
2018-12-16T15:10:56.412Z,18.43
2018-12-16T15:13:30.895Z,18.13
2018-12-16T15:16:06.479Z,17.43
2018-12-16T15:18:37.353Z,16.50
2018-12-16T15:21:07.908Z,18.23
2018-12-16T15:23:37.364Z,20.27
2018-12-16T15:26:18.674Z,23.10
2018-12-16T15:28:56.165Z,17.07
2018-12-16T15:31:29.633Z,18.23
2018-12-16T15:33:59.683Z,18.60
2018-12-16T15:36:32.555Z,18.83
2018-12-16T15:39:03.418Z,17.53
2018-12-16T15:41:33.643Z,17.97
2018-12-16T15:44:03.290Z,18.43
2018-12-16T15:46:34.884Z,19.30
2018-12-16T15:49:05.976Z,17.43
2018-12-16T15:51:46.243Z,18.67
2018-12-16T15:54:16.583Z,16.07
2018-12-16T15:56:46.350Z,18.20
2018-12-16T15:59:15.354Z,18.27
2018-12-16T16:01:45.063Z,16.83
2018-12-16T16:04:13.689Z,17.53
2018-12-16T16:06:42.729Z,19.40
2018-12-16T16:09:12.123Z,18.60
2018-12-16T16:11:40.698Z,18.90
2018-12-16T16:14:09.993Z,18.00
2018-12-16T16:16:38.484Z,19.37
2018-12-16T16:19:08.131Z,18.70
2018-12-16T16:21:36.789Z,18.43
2018-12-16T16:24:05.610Z,17.23
2018-12-16T16:26:34.533Z,23.57
2018-12-16T16:29:03.810Z,27.00
2018-12-16T16:31:33.583Z,25.07
2018-12-16T16:34:03.029Z,21.93
2018-12-16T16:36:34.780Z,20.63
2018-12-16T16:39:05.225Z,20.83
2018-12-16T16:41:34.223Z,20.43
2018-12-16T16:44:02.858Z,16.43
2018-12-16T16:46:32.721Z,17.63
2018-12-16T16:49:01.378Z,18.67
2018-12-16T16:51:30.518Z,18.30
2018-12-16T16:54:02.740Z,19.33
2018-12-16T16:56:31.508Z,19.93
2018-12-16T16:59:02.506Z,18.37
2018-12-16T17:01:34.834Z,18.93
2018-12-16T17:04:04.944Z,19.70
2018-12-16T17:06:37.313Z,21.23
2018-12-16T17:11:49.324Z,29.33
2018-12-16T17:14:21.920Z,31.43
2018-12-16T17:16:55.034Z,31.53
2018-12-16T17:19:26.389Z,31.40
2018-12-16T17:21:58.447Z,36.67
2018-12-16T17:24:32.779Z,39.50
2018-12-16T17:27:11.118Z,36.57
2018-12-16T17:29:40.389Z,27.57
2018-12-16T17:32:09.063Z,31.23
2018-12-16T17:34:38.214Z,35.43
2018-12-16T17:37:07.450Z,36.30
2018-12-16T17:39:36.560Z,33.23
2018-12-16T17:42:05.219Z,33.50
2018-12-16T17:44:35.769Z,31.03
2018-12-16T17:47:10.574Z,28.60
2018-12-16T17:49:39.523Z,29.50
2018-12-16T17:52:08.463Z,26.20
2018-12-16T17:54:39.323Z,27.97
2018-12-16T17:57:08.490Z,27.03
2018-12-16T17:59:37.727Z,24.97
2018-12-16T18:02:06.900Z,28.40
2018-12-16T18:04:35.809Z,24.73
2018-12-16T18:07:05.734Z,28.70
2018-12-16T18:09:36.804Z,25.57
2018-12-16T18:12:08.199Z,23.70
2018-12-16T18:14:37.560Z,20.30
2018-12-16T18:17:08.486Z,23.40
2018-12-16T18:19:37.529Z,20.73
2018-12-16T18:22:13.967Z,21.03
2018-12-16T18:24:41.987Z,21.00
2018-12-16T18:27:12.043Z,22.63
2018-12-16T18:32:19.584Z,21.13
2018-12-16T18:34:49.887Z,20.20
2018-12-16T18:37:19.471Z,20.60
2018-12-16T18:39:48.586Z,19.80
2018-12-16T18:42:18.221Z,21.50
2018-12-16T18:44:47.043Z,20.47
2018-12-16T18:47:16.119Z,20.20
2018-12-16T18:49:44.910Z,20.87
2018-12-16T18:52:14.051Z,20.50
2018-12-16T18:54:43.290Z,20.27
2018-12-16T18:57:12.975Z,20.07
2018-12-16T18:59:42.018Z,20.43
2018-12-16T19:02:11.550Z,22.20
2018-12-16T19:04:42.890Z,21.33
2018-12-16T19:07:14.250Z,21.37
2018-12-16T19:09:43.579Z,20.30
2018-12-16T19:12:12.331Z,22.10
2018-12-16T19:14:43.010Z,20.87
2018-12-16T19:17:12.018Z,21.23
2018-12-16T19:19:41.032Z,21.23
2018-12-16T19:22:10.230Z,23.77
2018-12-16T19:24:39.018Z,24.57
2018-12-16T19:27:08.198Z,23.43
2018-12-16T19:29:37.743Z,23.77
2018-12-16T19:32:06.917Z,22.97
2018-12-16T19:34:35.739Z,24.00
2018-12-16T19:37:04.538Z,24.47
2018-12-16T19:39:34.342Z,24.27
2018-12-16T19:42:03.378Z,23.53
2018-12-16T19:44:33.530Z,24.70
2018-12-16T19:47:05.739Z,24.13
2018-12-16T19:49:36.098Z,24.63
2018-12-16T19:52:05.638Z,23.30
2018-12-16T19:54:36.318Z,23.27
2018-12-16T19:57:07.019Z,24.30
2018-12-16T19:59:41.178Z,25.53
2018-12-16T20:02:17.330Z,26.33
2018-12-16T20:04:52.978Z,26.47
2018-12-16T20:07:25.930Z,25.17
2018-12-16T20:09:57.910Z,26.23
2018-12-16T20:12:29.238Z,24.07
2018-12-16T20:15:00.681Z,26.43
2018-12-16T20:17:31.818Z,24.07
2018-12-16T20:20:04.690Z,24.10
2018-12-16T20:22:38.938Z,25.37
2018-12-16T20:25:10.410Z,24.20
2018-12-16T20:27:43.230Z,26.97
2018-12-16T20:30:17.198Z,23.23
2018-12-16T20:32:48.358Z,23.93
2018-12-16T20:35:23.898Z,24.90
2018-12-16T20:38:06.477Z,23.47
2018-12-16T20:40:37.370Z,24.80
2018-12-16T20:43:09.210Z,24.13
2018-12-16T20:45:38.370Z,25.93
2018-12-16T20:48:19.098Z,25.87
2018-12-16T21:04:23.710Z,24.17
2018-12-16T21:09:45.321Z,25.93
2018-12-16T21:12:24.318Z,26.97
2018-12-16T21:15:01.706Z,25.73
2018-12-16T21:17:36.558Z,27.37
2018-12-16T21:20:09.111Z,26.63
2018-12-16T21:22:40.178Z,26.70
2018-12-16T21:25:10.838Z,28.47
2018-12-16T21:27:39.461Z,25.50
2018-12-16T21:30:08.111Z,26.07
2018-12-16T21:32:36.738Z,26.40
2018-12-16T21:35:05.820Z,26.03
2018-12-16T21:37:34.598Z,25.90
2018-12-16T21:40:05.357Z,27.87
2018-12-16T21:42:33.846Z,26.30
2018-12-16T21:45:02.378Z,26.70
2018-12-16T21:47:31.019Z,24.67
2018-12-16T21:49:59.678Z,24.40
2018-12-16T21:52:28.217Z,25.50
2018-12-16T21:54:56.797Z,24.83
2018-12-16T21:57:25.342Z,24.73
2018-12-16T21:59:53.917Z,21.97
2018-12-16T22:02:22.510Z,22.30
2018-12-16T22:04:51.017Z,24.10
2018-12-16T22:07:19.591Z,21.37
2018-12-16T22:09:48.251Z,21.77
2018-12-16T22:12:16.697Z,22.90
2018-12-16T22:14:45.198Z,23.63
2018-12-16T22:17:13.578Z,23.33
2018-12-16T22:19:42.090Z,25.97
2018-12-16T22:22:10.457Z,25.47
2018-12-16T22:24:38.897Z,26.77
2018-12-16T22:27:07.038Z,26.53
2018-12-16T22:29:35.270Z,24.93
2018-12-16T22:32:03.750Z,23.30
2018-12-16T22:34:31.910Z,25.93
2018-12-16T22:37:00.289Z,24.07
2018-12-16T22:39:28.497Z,23.20
2018-12-16T22:41:56.678Z,25.93
2018-12-16T22:44:24.739Z,25.00
2018-12-16T22:46:52.938Z,25.77
2018-12-16T22:49:21.270Z,23.00
2018-12-16T22:51:49.630Z,25.13
2018-12-16T22:54:17.921Z,26.37
2018-12-16T22:56:46.838Z,25.17
2018-12-16T22:59:14.989Z,26.20
2018-12-16T23:01:43.090Z,25.87
2018-12-16T23:04:11.278Z,25.77
2018-12-16T23:06:40.418Z,23.60
2018-12-16T23:09:08.657Z,26.07
2018-12-16T23:11:36.798Z,27.13
2018-12-16T23:14:05.058Z,26.37
2018-12-16T23:16:33.117Z,26.03
2018-12-16T23:19:01.337Z,23.87
2018-12-16T23:21:29.398Z,26.17
2018-12-16T23:23:57.581Z,27.80
2018-12-16T23:26:27.732Z,24.40
2018-12-16T23:28:55.769Z,26.57
2018-12-16T23:31:23.899Z,23.00
2018-12-16T23:33:51.989Z,28.77
2018-12-16T23:36:20.117Z,29.03
2018-12-16T23:38:48.168Z,29.97
2018-12-16T23:41:16.289Z,28.33
2018-12-16T23:43:44.402Z,26.13
2018-12-16T23:46:12.529Z,28.00
2018-12-16T23:48:40.697Z,26.80
2018-12-16T23:51:08.817Z,27.97
2018-12-16T23:53:36.916Z,30.43
2018-12-16T23:56:05.137Z,30.83
2018-12-16T23:58:33.197Z,28.43
